createdAt,value
2022-09-12T00:01:19.533Z,20.35
2022-09-12T00:03:46.620Z,18.75
2022-09-12T00:06:22.881Z,21.05
2022-09-12T00:08:50.329Z,23.60
2022-09-12T00:11:16.682Z,18.30
2022-09-12T00:13:43.677Z,18.92
2022-09-12T00:16:36.599Z,19.55
2022-09-12T00:19:04.093Z,22.65
2022-09-12T00:21:33.176Z,19.25
2022-09-12T00:23:59.546Z,21.30
2022-09-12T00:26:25.949Z,19.30
2022-09-12T00:28:52.669Z,20.02
2022-09-12T00:31:23.940Z,19.48
2022-09-12T00:33:50.438Z,15.88
2022-09-12T00:36:19.644Z,20.98
2022-09-12T00:38:47.314Z,18.88
2022-09-12T00:41:27.290Z,18.40
2022-09-12T00:43:59.624Z,17.67
2022-09-12T00:46:32.464Z,18.48
2022-09-12T00:49:03.778Z,21.73
2022-09-12T00:51:34.049Z,20.67
2022-09-12T00:54:05.652Z,18.65
2022-09-12T00:56:32.836Z,20.33
2022-09-12T00:59:10.541Z,19.10
2022-09-12T01:01:37.397Z,18.10
2022-09-12T01:04:03.908Z,19.55
2022-09-12T01:06:36.319Z,18.30
2022-09-12T01:09:04.742Z,17.80
2022-09-12T01:11:34.030Z,17.42
2022-09-12T01:14:00.753Z,20.60
2022-09-12T01:16:27.404Z,18.60
2022-09-12T01:19:32.888Z,18.50
2022-09-12T01:22:30.165Z,17.50
2022-09-12T01:25:12.622Z,23.33
2022-09-12T01:27:45.884Z,19.50
2022-09-12T01:30:27.332Z,17.88
2022-09-12T01:33:12.362Z,19.30
2022-09-12T01:35:55.619Z,20.38
2022-09-12T01:38:27.515Z,19.30
2022-09-12T01:41:12.233Z,18.52
2022-09-12T01:43:59.315Z,21.25
2022-09-12T01:46:35.764Z,23.67
2022-09-12T01:49:27.237Z,31.05
2022-09-12T01:54:51.238Z,33.90
2022-09-12T01:57:27.931Z,40.63
2022-09-12T02:00:00.387Z,39.60
2022-09-12T02:02:41.906Z,34.25
2022-09-12T02:05:12.699Z,35.75
2022-09-12T02:07:44.950Z,38.15
2022-09-12T02:10:16.043Z,40.08
2022-09-12T02:12:57.652Z,35.10
2022-09-12T02:15:32.542Z,35.78
2022-09-12T02:18:04.512Z,44.05
2022-09-12T02:20:50.771Z,45.72
2022-09-12T02:23:22.460Z,51.90
2022-09-12T02:25:52.684Z,38.00
2022-09-12T02:28:26.570Z,33.47
2022-09-12T02:30:59.261Z,37.88
2022-09-12T02:33:39.160Z,55.75
2022-09-12T02:36:14.310Z,48.45
2022-09-12T02:38:46.817Z,45.60
2022-09-12T02:41:17.300Z,38.95
2022-09-12T02:43:43.770Z,38.67
2022-09-12T02:46:18.015Z,48.30
2022-09-12T02:48:44.430Z,48.13
2022-09-12T02:51:11.773Z,32.25
2022-09-12T02:53:38.694Z,47.00
2022-09-12T02:56:12.630Z,38.72
2022-09-12T02:58:39.147Z,39.95
2022-09-12T03:01:18.908Z,31.50
2022-09-12T03:04:21.001Z,38.10
2022-09-12T03:06:55.310Z,44.92
2022-09-12T03:09:42.875Z,30.92
2022-09-12T03:12:30.200Z,36.20
2022-09-12T03:15:31.596Z,32.10
2022-09-12T03:18:19.954Z,38.67
2022-09-12T03:20:58.953Z,36.15
2022-09-12T03:23:33.832Z,34.10
2022-09-12T03:26:06.563Z,30.65
2022-09-12T03:28:35.532Z,34.15
2022-09-12T03:31:13.239Z,32.55
2022-09-12T03:33:39.585Z,32.10
2022-09-12T03:36:06.315Z,36.47
2022-09-12T03:38:32.660Z,28.17
2022-09-12T03:40:59.055Z,29.98
2022-09-12T03:43:25.422Z,24.85
2022-09-12T03:45:53.296Z,23.35
2022-09-12T03:48:21.076Z,22.20
2022-09-12T03:50:47.442Z,22.67
2022-09-12T03:53:17.060Z,26.63
2022-09-12T03:55:44.330Z,21.73
2022-09-12T03:58:10.667Z,20.08
2022-09-12T04:00:38.826Z,22.48
2022-09-12T04:03:05.249Z,26.70
2022-09-12T04:05:31.610Z,24.42
2022-09-12T04:07:58.099Z,22.33
2022-09-12T04:10:24.492Z,27.90
2022-09-12T04:12:50.976Z,31.95
2022-09-12T04:15:17.406Z,30.33
2022-09-12T04:17:43.817Z,30.60
2022-09-12T04:20:10.674Z,33.40
2022-09-12T04:22:37.063Z,40.53
2022-09-12T04:25:04.006Z,35.70
2022-09-12T04:27:30.881Z,34.55
2022-09-12T04:29:58.076Z,33.97
2022-09-12T04:32:24.531Z,35.58
2022-09-12T04:34:52.390Z,35.58
2022-09-12T04:37:19.322Z,52.10
2022-09-12T04:39:45.740Z,40.72
2022-09-12T04:42:12.351Z,36.90
2022-09-12T04:44:38.738Z,33.42
2022-09-12T04:47:05.168Z,26.67
2022-09-12T04:49:31.710Z,25.52
2022-09-12T04:51:58.087Z,26.40
2022-09-12T04:54:24.629Z,42.47
2022-09-12T04:56:52.476Z,35.28
2022-09-12T04:59:21.111Z,36.90
2022-09-12T05:01:48.385Z,35.80
2022-09-12T05:04:15.562Z,27.95
2022-09-12T05:06:43.075Z,22.85
2022-09-12T05:09:12.466Z,24.40
2022-09-12T05:12:03.101Z,23.42
2022-09-12T05:14:27.483Z,21.55
2022-09-12T05:16:53.944Z,23.00
2022-09-12T05:19:20.362Z,24.35
2022-09-12T05:21:46.711Z,20.23
2022-09-12T05:24:13.184Z,23.30
2022-09-12T05:26:39.596Z,22.83
2022-09-12T05:29:06.992Z,28.17
2022-09-12T05:31:33.418Z,24.73
2022-09-12T05:33:59.802Z,26.67
2022-09-12T05:36:29.222Z,23.15
2022-09-12T05:38:56.251Z,25.58
2022-09-12T05:41:25.741Z,33.20
2022-09-12T05:43:54.399Z,27.45
2022-09-12T05:46:23.239Z,24.75
2022-09-12T05:48:55.133Z,26.85
2022-09-12T05:51:27.975Z,25.73
2022-09-12T05:53:59.887Z,40.50
2022-09-12T05:56:28.859Z,31.20
2022-09-12T05:58:58.863Z,35.88
2022-09-12T06:01:27.235Z,32.53
2022-09-12T06:03:55.531Z,48.80
2022-09-12T06:06:24.552Z,45.22
2022-09-12T06:08:53.947Z,42.70
2022-09-12T06:11:22.934Z,33.70
2022-09-12T06:13:50.952Z,29.92
2022-09-12T06:16:20.220Z,29.35
2022-09-12T06:18:48.660Z,33.75
2022-09-12T06:21:15.516Z,40.35
2022-09-12T06:23:42.605Z,40.20
2022-09-12T06:26:10.681Z,36.28
2022-09-12T06:28:39.975Z,32.58
2022-09-12T06:31:15.151Z,31.42
2022-09-12T06:33:46.829Z,35.15
2022-09-12T06:36:18.593Z,26.40
2022-09-12T06:38:46.259Z,34.03
2022-09-12T06:41:13.645Z,26.27
2022-09-12T06:43:41.394Z,38.03
2022-09-12T06:46:09.181Z,31.85
2022-09-12T06:48:39.733Z,40.45
2022-09-12T06:51:14.660Z,32.92
2022-09-12T06:53:42.083Z,36.90
2022-09-12T06:56:19.138Z,36.95
2022-09-12T06:58:47.009Z,34.78
2022-09-12T07:01:18.945Z,29.52
2022-09-12T07:03:54.958Z,25.98
2022-09-12T07:06:24.239Z,28.42
2022-09-12T07:08:50.983Z,28.77
2022-09-12T07:11:23.912Z,30.17
2022-09-12T07:13:55.978Z,28.60
2022-09-12T07:16:22.755Z,25.80
2022-09-12T07:18:52.905Z,26.83
2022-09-12T07:21:20.147Z,22.27
2022-09-12T07:23:47.308Z,20.58
2022-09-12T07:26:15.629Z,18.80
2022-09-12T07:28:42.431Z,19.55
2022-09-12T07:31:17.665Z,24.60
2022-09-12T07:33:44.588Z,22.98
2022-09-12T07:36:13.817Z,20.63
2022-09-12T07:38:41.357Z,19.27
2022-09-12T07:41:15.094Z,20.58
2022-09-12T07:43:44.342Z,22.08
2022-09-12T07:46:11.605Z,25.08
2022-09-12T07:48:39.199Z,23.77
2022-09-12T07:51:08.567Z,24.38
2022-09-12T07:53:37.633Z,26.15
2022-09-12T07:56:05.441Z,23.45
2022-09-12T07:58:33.863Z,22.85
2022-09-12T08:01:05.775Z,30.77
2022-09-12T08:03:32.168Z,25.95
2022-09-12T08:06:04.778Z,29.10
2022-09-12T08:08:31.803Z,26.60
2022-09-12T08:11:00.139Z,26.33
2022-09-12T08:13:28.056Z,28.63
2022-09-12T08:16:02.585Z,24.88
2022-09-12T08:18:31.119Z,26.25
2022-09-12T08:20:59.219Z,22.15
2022-09-12T08:23:26.057Z,25.33
2022-09-12T08:25:56.931Z,25.85
2022-09-12T08:28:24.990Z,27.15
2022-09-12T08:30:52.389Z,26.52
2022-09-12T08:33:19.396Z,26.65
2022-09-12T08:35:46.659Z,27.60
2022-09-12T08:38:13.117Z,25.15
2022-09-12T08:40:59.439Z,28.48
2022-09-12T08:43:50.969Z,32.47
2022-09-12T08:46:29.252Z,27.58
2022-09-12T08:48:58.464Z,31.05
2022-09-12T08:51:25.420Z,29.88
2022-09-12T08:53:54.635Z,31.23
2022-09-12T08:56:21.386Z,33.50
2022-09-12T08:58:48.155Z,28.17
2022-09-12T09:01:34.871Z,31.75
2022-09-12T09:04:10.587Z,31.17
2022-09-12T09:06:52.208Z,30.42
2022-09-12T09:09:21.897Z,33.40
2022-09-12T09:12:03.318Z,38.65
2022-09-12T09:15:01.028Z,35.22
2022-09-12T09:18:04.139Z,31.95
2022-09-12T09:20:39.326Z,30.90
2022-09-12T09:23:17.671Z,32.70
2022-09-12T09:26:14.580Z,27.95
2022-09-12T09:28:51.383Z,34.83
2022-09-12T09:31:20.651Z,34.42
2022-09-12T09:33:49.705Z,38.33
2022-09-12T09:36:38.894Z,31.67
2022-09-12T09:39:12.504Z,36.15
2022-09-12T09:44:59.096Z,36.20
2022-09-12T09:47:25.999Z,32.47
2022-09-12T09:49:52.394Z,27.23
2022-09-12T09:52:26.213Z,28.88
2022-09-12T09:54:57.557Z,28.02
2022-09-12T09:57:36.206Z,26.17
2022-09-12T10:00:27.779Z,30.52
2022-09-12T10:03:34.339Z,22.50
2022-09-12T10:06:06.008Z,24.85
2022-09-12T10:08:35.620Z,27.90
2022-09-12T10:11:19.501Z,24.75
2022-09-12T10:13:53.102Z,27.90
2022-09-12T10:16:27.694Z,33.28
2022-09-12T10:18:56.859Z,22.40
2022-09-12T10:21:32.280Z,19.75
2022-09-12T10:24:03.164Z,22.80
2022-09-12T10:26:36.259Z,24.75
2022-09-12T10:29:28.559Z,21.25
2022-09-12T10:31:58.724Z,20.80
2022-09-12T10:34:31.011Z,24.07
2022-09-12T10:37:04.594Z,21.55
2022-09-12T10:39:32.633Z,19.23
2022-09-12T10:41:59.223Z,16.92
2022-09-12T10:44:33.609Z,18.00
2022-09-12T10:47:19.409Z,17.27
2022-09-12T10:49:45.844Z,19.30
2022-09-12T10:52:23.394Z,21.52
2022-09-12T10:54:54.284Z,17.48
2022-09-12T10:58:00.953Z,15.48
2022-09-12T11:00:30.286Z,16.30
2022-09-12T11:03:16.236Z,20.38
2022-09-12T11:05:55.234Z,15.52
2022-09-12T11:08:45.265Z,15.80
2022-09-12T11:11:39.956Z,13.18
2022-09-12T11:14:19.107Z,14.95
2022-09-12T11:17:18.339Z,21.63
2022-09-12T11:20:13.916Z,19.65
2022-09-12T11:23:17.558Z,29.35
2022-09-12T11:26:02.788Z,14.93
2022-09-12T11:28:46.687Z,13.55
2022-09-12T11:31:44.251Z,10.40
2022-09-12T11:34:14.335Z,14.40
2022-09-12T11:37:13.306Z,11.57
2022-09-12T11:39:46.457Z,9.18
2022-09-12T11:42:20.590Z,11.23
2022-09-12T11:44:56.355Z,12.80
2022-09-12T11:47:24.820Z,12.40
2022-09-12T11:49:54.588Z,17.73
2022-09-12T11:52:25.999Z,20.73
2022-09-12T11:55:06.595Z,15.07
2022-09-12T11:57:48.315Z,10.02
2022-09-12T12:00:26.560Z,11.32
2022-09-12T12:03:14.391Z,7.85
2022-09-12T12:05:59.609Z,6.60
2022-09-12T12:08:29.665Z,6.20
2022-09-12T12:11:03.933Z,7.80
2022-09-12T12:13:35.365Z,5.65
2022-09-12T12:16:14.343Z,6.13
2022-09-12T12:18:43.218Z,8.32
2022-09-12T12:21:26.578Z,9.23
2022-09-12T12:24:08.155Z,7.25
2022-09-12T12:26:40.626Z,5.13
2022-09-12T12:29:41.502Z,7.07
2022-09-12T12:32:09.797Z,11.93
2022-09-12T12:34:36.117Z,10.10
2022-09-12T12:37:43.502Z,7.57
2022-09-12T12:40:22.473Z,6.43
2022-09-12T12:42:48.800Z,7.47
2022-09-12T12:45:18.170Z,6.28
2022-09-12T12:47:47.610Z,6.18
2022-09-12T12:50:16.927Z,8.35
2022-09-12T12:52:47.541Z,7.00
2022-09-12T12:55:19.794Z,7.07
2022-09-12T12:57:52.567Z,7.05
2022-09-12T13:00:25.132Z,5.97
2022-09-12T13:03:00.443Z,6.30
2022-09-12T13:05:29.892Z,5.88
2022-09-12T13:08:33.076Z,9.07
2022-09-12T13:11:03.016Z,6.55
2022-09-12T13:13:41.018Z,6.93
2022-09-12T13:16:10.725Z,7.22
2022-09-12T13:18:45.431Z,8.15
2022-09-12T13:21:13.842Z,10.48
2022-09-12T13:23:41.231Z,6.40
2022-09-12T13:26:23.796Z,10.27
2022-09-12T13:28:51.436Z,7.38
2022-09-12T13:31:25.733Z,9.05
2022-09-12T13:33:53.689Z,6.07
2022-09-12T13:36:53.742Z,4.93
2022-09-12T13:39:34.311Z,4.93
2022-09-12T13:42:39.850Z,5.43
2022-09-12T13:45:12.822Z,5.75
2022-09-12T13:47:45.349Z,6.50
2022-09-12T13:50:18.395Z,5.55
2022-09-12T13:52:49.555Z,5.10
2022-09-12T13:55:31.397Z,6.38
2022-09-12T13:58:04.261Z,5.93
2022-09-12T14:00:33.195Z,5.95
2022-09-12T14:03:18.795Z,5.32
2022-09-12T14:05:54.968Z,5.97
2022-09-12T14:08:23.724Z,7.68
2022-09-12T14:10:51.265Z,5.68
2022-09-12T14:13:23.095Z,7.05
2022-09-12T14:15:55.140Z,4.97
2022-09-12T14:18:36.545Z,5.55
2022-09-12T14:21:10.598Z,5.50
2022-09-12T14:23:41.478Z,4.85
2022-09-12T14:26:12.236Z,5.60
2022-09-12T14:28:49.527Z,5.35
2022-09-12T14:31:16.642Z,4.50
2022-09-12T14:33:54.653Z,5.63
2022-09-12T14:36:29.994Z,5.88
2022-09-12T14:39:02.874Z,6.30
2022-09-12T14:41:34.508Z,5.50
2022-09-12T14:44:05.202Z,4.00
2022-09-12T14:46:37.255Z,3.88
2022-09-12T14:49:13.430Z,6.25
2022-09-12T14:51:44.712Z,4.47
2022-09-12T14:54:27.633Z,4.43
2022-09-12T14:57:00.379Z,4.20
2022-09-12T14:59:36.394Z,4.22
2022-09-12T15:02:21.034Z,4.15
2022-09-12T15:05:14.118Z,6.75
2022-09-12T15:07:43.184Z,3.70
2022-09-12T15:10:36.007Z,5.20
2022-09-12T15:13:05.411Z,6.05
2022-09-12T15:15:32.647Z,3.90
2022-09-12T15:18:01.377Z,5.45
2022-09-12T15:20:29.918Z,3.33
2022-09-12T15:22:56.795Z,4.70
2022-09-12T15:25:23.357Z,3.75
2022-09-12T15:27:53.673Z,6.38
2022-09-12T15:30:20.052Z,3.70
2022-09-12T15:32:46.411Z,3.78
2022-09-12T15:35:17.913Z,4.30
2022-09-12T15:37:44.928Z,3.50
2022-09-12T15:40:12.418Z,3.97
2022-09-12T15:42:39.131Z,4.47
2022-09-12T15:45:22.347Z,4.10
2022-09-12T15:47:48.835Z,4.55
2022-09-12T15:50:15.431Z,3.78
2022-09-12T15:52:42.978Z,3.40
2022-09-12T15:55:25.237Z,4.20
2022-09-12T15:57:52.022Z,4.22
2022-09-12T16:00:19.299Z,5.10
2022-09-12T16:02:48.958Z,3.20
2022-09-12T16:05:19.514Z,3.83
2022-09-12T16:07:45.970Z,4.15
2022-09-12T16:10:17.812Z,5.35
2022-09-12T16:12:45.477Z,4.20
2022-09-12T16:15:14.022Z,3.92
2022-09-12T16:17:40.772Z,3.60
2022-09-12T16:20:08.468Z,4.88
2022-09-12T16:22:34.890Z,2.95
2022-09-12T16:25:01.499Z,3.58
2022-09-12T16:27:27.864Z,3.95
2022-09-12T16:29:54.382Z,3.67
2022-09-12T16:32:20.815Z,3.15
2022-09-12T16:34:47.214Z,3.05
2022-09-12T16:37:13.652Z,5.15
2022-09-12T16:39:40.039Z,3.63
2022-09-12T16:42:06.558Z,4.10
2022-09-12T16:44:32.906Z,2.80
2022-09-12T16:46:59.261Z,3.53
2022-09-12T16:49:25.770Z,2.95
2022-09-12T16:51:52.218Z,2.83
2022-09-12T16:54:19.583Z,5.82
2022-09-12T16:56:46.607Z,3.95
2022-09-12T16:59:16.214Z,4.50
2022-09-12T17:01:43.050Z,3.78
2022-09-12T17:04:10.163Z,4.90
2022-09-12T17:06:36.652Z,4.32
2022-09-12T17:09:04.715Z,5.97
2022-09-12T17:11:33.645Z,4.70
2022-09-12T17:14:05.090Z,6.82
2022-09-12T17:16:38.218Z,7.47
2022-09-12T17:19:05.991Z,5.70
2022-09-12T17:21:32.743Z,5.28
2022-09-12T17:23:59.250Z,7.22
2022-09-12T17:26:26.656Z,4.80
2022-09-12T17:28:53.049Z,4.15
2022-09-12T17:31:19.729Z,4.32
2022-09-12T17:33:46.350Z,3.80
2022-09-12T17:36:16.254Z,8.95
2022-09-12T17:38:45.199Z,6.57
2022-09-12T17:41:20.663Z,4.97
2022-09-12T17:43:52.076Z,6.38
2022-09-12T17:46:19.914Z,5.25
2022-09-12T17:48:57.161Z,5.38
2022-09-12T17:51:25.249Z,5.72
2022-09-12T17:54:21.236Z,10.40
2022-09-12T17:56:52.119Z,7.28
2022-09-12T17:59:20.371Z,5.38
2022-09-12T18:02:05.580Z,6.63
2022-09-12T18:04:32.387Z,6.72
2022-09-12T18:07:00.237Z,4.95
2022-09-12T18:09:27.142Z,7.47
2022-09-12T18:11:53.979Z,5.28
2022-09-12T18:14:20.701Z,5.82
2022-09-12T18:16:47.956Z,5.90
2022-09-12T18:19:14.577Z,12.20
2022-09-12T18:21:41.568Z,9.10
2022-09-12T18:24:10.042Z,7.07
2022-09-12T18:26:36.928Z,7.55
2022-09-12T18:29:03.338Z,5.32
2022-09-12T18:31:31.016Z,6.30
2022-09-12T18:34:02.446Z,5.95
2022-09-12T18:36:30.232Z,6.25
2022-09-12T18:38:58.570Z,11.48
2022-09-12T18:41:25.822Z,6.53
2022-09-12T18:43:56.684Z,9.55
2022-09-12T18:46:23.969Z,6.38
2022-09-12T18:48:50.683Z,9.02
2022-09-12T18:51:19.973Z,5.80
2022-09-12T18:53:54.196Z,11.10
2022-09-12T18:56:21.863Z,9.32
2022-09-12T18:58:55.018Z,8.73
2022-09-12T19:01:27.199Z,10.88
2022-09-12T19:03:54.515Z,13.10
2022-09-12T19:06:26.526Z,8.27
2022-09-12T19:08:54.511Z,8.65
2022-09-12T19:11:21.852Z,6.75
2022-09-12T19:13:50.635Z,10.93
2022-09-12T19:16:19.780Z,7.90
2022-09-12T19:18:49.811Z,12.50
2022-09-12T19:21:24.619Z,8.18
2022-09-12T19:23:52.352Z,8.27
2022-09-12T19:26:20.451Z,9.27
2022-09-12T19:28:47.175Z,8.55
2022-09-12T19:31:16.605Z,7.82
2022-09-12T19:33:43.042Z,8.40
2022-09-12T19:36:33.658Z,6.50
2022-09-12T19:38:59.978Z,7.30
2022-09-12T19:41:26.481Z,9.70
2022-09-12T19:43:53.000Z,6.43
2022-09-12T19:46:21.955Z,7.63
2022-09-12T19:48:49.154Z,7.32
2022-09-12T19:51:16.907Z,10.95
2022-09-12T19:53:43.924Z,12.32
2022-09-12T19:56:12.008Z,8.75
2022-09-12T19:58:41.039Z,8.18
2022-09-12T20:01:14.950Z,7.45
2022-09-12T20:03:42.290Z,7.63
2022-09-12T20:06:10.938Z,6.47
2022-09-12T20:08:39.929Z,6.22
2022-09-12T20:11:07.303Z,8.88
2022-09-12T20:13:33.780Z,10.25
2022-09-12T20:16:11.615Z,10.43
2022-09-12T20:18:38.642Z,6.80
2022-09-12T20:21:14.815Z,8.07
2022-09-12T20:23:41.390Z,8.70
2022-09-12T20:26:09.215Z,9.20
2022-09-12T20:28:39.132Z,9.80
2022-09-12T20:31:23.991Z,9.18
2022-09-12T20:33:52.078Z,6.53
2022-09-12T20:36:20.547Z,7.43
2022-09-12T20:38:53.234Z,6.53
2022-09-12T20:41:21.094Z,9.13
2022-09-12T20:44:03.190Z,8.23
2022-09-12T20:46:29.781Z,6.68
2022-09-12T20:48:56.861Z,7.72
2022-09-12T20:51:25.451Z,9.07
2022-09-12T20:54:10.614Z,12.35
2022-09-12T20:56:37.584Z,8.15
2022-09-12T20:59:04.843Z,14.77
2022-09-12T21:01:31.599Z,8.00
2022-09-12T21:03:59.830Z,6.75
2022-09-12T21:06:26.485Z,8.73
2022-09-12T21:08:53.125Z,12.00
2022-09-12T21:11:19.826Z,9.25
2022-09-12T21:13:46.883Z,14.13
2022-09-12T21:16:18.324Z,12.07
2022-09-12T21:18:45.205Z,8.85
2022-09-12T21:21:13.407Z,9.32
2022-09-12T21:23:40.563Z,7.22
2022-09-12T21:26:08.008Z,7.13
2022-09-12T21:28:34.772Z,8.60
2022-09-12T21:31:01.358Z,7.57
2022-09-12T21:33:28.144Z,8.75
2022-09-12T21:35:54.498Z,8.43
2022-09-12T21:38:20.956Z,9.77
2022-09-12T21:40:47.684Z,10.00
2022-09-12T21:43:14.941Z,9.30
2022-09-12T21:45:41.337Z,12.50
2022-09-12T21:48:07.800Z,9.15
2022-09-12T21:50:34.198Z,7.30
2022-09-12T21:53:00.618Z,8.60
2022-09-12T21:55:27.376Z,10.65
2022-09-12T21:57:54.705Z,9.95
2022-09-12T22:00:22.134Z,10.60
2022-09-12T22:02:48.832Z,6.40
2022-09-12T22:05:15.517Z,10.45
2022-09-12T22:07:42.062Z,9.23
2022-09-12T22:10:09.182Z,7.72
2022-09-12T22:12:35.654Z,12.75
2022-09-12T22:15:17.542Z,11.25
2022-09-12T22:17:48.479Z,7.50
2022-09-12T22:20:14.972Z,8.43
2022-09-12T22:22:59.983Z,7.40
2022-09-12T22:25:26.546Z,13.70
2022-09-12T22:27:54.009Z,7.63
2022-09-12T22:30:21.608Z,9.38
2022-09-12T22:32:49.923Z,12.15
2022-09-12T22:35:17.646Z,7.60
2022-09-12T22:37:44.454Z,11.75
2022-09-12T22:40:11.875Z,8.02
2022-09-12T22:42:38.651Z,12.10
2022-09-12T22:45:06.495Z,6.57
2022-09-12T22:47:33.040Z,15.43
2022-09-12T22:49:59.403Z,7.88
2022-09-12T22:52:26.180Z,9.32
2022-09-12T22:54:53.003Z,12.10
2022-09-12T22:57:19.371Z,6.75
2022-09-12T22:59:46.523Z,8.90
2022-09-12T23:02:12.882Z,10.65
2022-09-12T23:04:39.814Z,15.80
2022-09-12T23:07:06.566Z,8.23
2022-09-12T23:09:35.382Z,8.30
2022-09-12T23:12:02.550Z,10.27
2022-09-12T23:14:28.927Z,11.02
2022-09-12T23:16:55.458Z,9.10
2022-09-12T23:19:21.879Z,9.38
2022-09-12T23:21:48.363Z,10.32
2022-09-12T23:24:14.801Z,8.60
2022-09-12T23:26:41.200Z,11.20
2022-09-12T23:29:07.655Z,9.13
2022-09-12T23:31:34.539Z,11.32
2022-09-12T23:34:03.738Z,12.40
2022-09-12T23:36:30.448Z,8.98
2022-09-12T23:38:57.690Z,11.23
2022-09-12T23:41:24.508Z,11.93
2022-09-12T23:43:50.926Z,9.23
2022-09-12T23:46:18.543Z,10.85
2022-09-12T23:48:45.395Z,9.18
2022-09-12T23:51:12.334Z,9.63
2022-09-12T23:53:39.219Z,9.82
2022-09-12T23:56:06.060Z,8.27
2022-09-12T23:58:32.723Z,11.85
